sensor_id;sensor_type;location;lat;lon;timestamp;P1;durP1;ratioP1;P2;durP2;ratioP2
27491;SDS011;14927;51.210;6.838;2022-09-13T00:01:00;3.95;;;2.22;;
27491;SDS011;14927;51.210;6.838;2022-09-13T00:03:45;4.20;;;2.50;;
27491;SDS011;14927;51.210;6.838;2022-09-13T00:06:29;2.72;;;2.00;;
27491;SDS011;14927;51.210;6.838;2022-09-13T00:09:14;5.47;;;2.47;;
27491;SDS011;14927;51.210;6.838;2022-09-13T00:11:58;3.50;;;2.50;;
27491;SDS011;14927;51.210;6.838;2022-09-13T00:14:43;3.53;;;2.17;;
27491;SDS011;14927;51.210;6.838;2022-09-13T00:17:28;6.65;;;1.95;;
27491;SDS011;14927;51.210;6.838;2022-09-13T00:20:12;2.50;;;2.30;;
27491;SDS011;14927;51.210;6.838;2022-09-13T00:22:57;3.63;;;2.15;;
27491;SDS011;14927;51.210;6.838;2022-09-13T00:25:42;4.63;;;2.40;;
27491;SDS011;14927;51.210;6.838;2022-09-13T00:28:27;2.53;;;2.15;;
27491;SDS011;14927;51.210;6.838;2022-09-13T00:31:12;8.27;;;2.70;;
27491;SDS011;14927;51.210;6.838;2022-09-13T00:33:57;7.38;;;2.40;;
27491;SDS011;14927;51.210;6.838;2022-09-13T00:36:42;7.85;;;2.80;;
27491;SDS011;14927;51.210;6.838;2022-09-13T00:39:27;6.18;;;2.58;;
27491;SDS011;14927;51.210;6.838;2022-09-13T00:42:12;3.97;;;2.50;;
27491;SDS011;14927;51.210;6.838;2022-09-13T00:45:01;3.00;;;2.65;;
27491;SDS011;14927;51.210;6.838;2022-09-13T00:48:06;3.17;;;2.70;;
27491;SDS011;14927;51.210;6.838;2022-09-13T00:50:56;5.97;;;2.83;;
27491;SDS011;14927;51.210;6.838;2022-09-13T00:53:42;7.90;;;2.78;;
27491;SDS011;14927;51.210;6.838;2022-09-13T00:56:37;5.15;;;2.65;;
27491;SDS011;14927;51.210;6.838;2022-09-13T00:59:34;3.10;;;2.60;;
27491;SDS011;14927;51.210;6.838;2022-09-13T01:02:26;4.60;;;2.50;;
27491;SDS011;14927;51.210;6.838;2022-09-13T01:05:14;5.78;;;2.30;;
27491;SDS011;14927;51.210;6.838;2022-09-13T01:08:04;2.90;;;2.35;;
27491;SDS011;14927;51.210;6.838;2022-09-13T01:10:55;5.57;;;2.50;;
27491;SDS011;14927;51.210;6.838;2022-09-13T01:13:42;5.35;;;2.83;;
27491;SDS011;14927;51.210;6.838;2022-09-13T01:16:27;3.60;;;2.50;;
27491;SDS011;14927;51.210;6.838;2022-09-13T01:19:12;4.53;;;2.78;;
27491;SDS011;14927;51.210;6.838;2022-09-13T01:29:07;4.13;;;3.08;;
27491;SDS011;14927;51.210;6.838;2022-09-13T01:47:36;4.27;;;3.07;;
27491;SDS011;14927;51.210;6.838;2022-09-13T01:53:43;3.67;;;2.80;;
27491;SDS011;14927;51.210;6.838;2022-09-13T02:03:04;4.00;;;2.55;;
27491;SDS011;14927;51.210;6.838;2022-09-13T02:05:57;8.05;;;3.10;;
27491;SDS011;14927;51.210;6.838;2022-09-13T02:08:48;3.70;;;3.10;;
27491;SDS011;14927;51.210;6.838;2022-09-13T02:11:38;8.60;;;3.00;;
27491;SDS011;14927;51.210;6.838;2022-09-13T02:17:23;4.38;;;2.80;;
27491;SDS011;14927;51.210;6.838;2022-09-13T02:20:16;4.50;;;2.92;;
27491;SDS011;14927;51.210;6.838;2022-09-13T02:23:18;5.90;;;2.97;;
27491;SDS011;14927;51.210;6.838;2022-09-13T02:26:35;3.60;;;3.10;;
27491;SDS011;14927;51.210;6.838;2022-09-13T02:29:22;4.03;;;2.65;;
27491;SDS011;14927;51.210;6.838;2022-09-13T02:32:16;5.10;;;2.67;;
27491;SDS011;14927;51.210;6.838;2022-09-13T02:35:23;3.75;;;2.45;;
27491;SDS011;14927;51.210;6.838;2022-09-13T02:38:24;3.00;;;2.58;;
27491;SDS011;14927;51.210;6.838;2022-09-13T02:53:04;3.97;;;2.80;;
27491;SDS011;14927;51.210;6.838;2022-09-13T02:56:09;4.15;;;3.03;;
27491;SDS011;14927;51.210;6.838;2022-09-13T02:59:26;7.85;;;3.03;;
27491;SDS011;14927;51.210;6.838;2022-09-13T03:02:12;6.22;;;2.92;;
27491;SDS011;14927;51.210;6.838;2022-09-13T03:05:00;5.13;;;3.17;;
27491;SDS011;14927;51.210;6.838;2022-09-13T03:07:45;3.00;;;2.70;;
27491;SDS011;14927;51.210;6.838;2022-09-13T03:10:34;5.88;;;3.33;;
27491;SDS011;14927;51.210;6.838;2022-09-13T03:13:28;5.97;;;3.13;;
27491;SDS011;14927;51.210;6.838;2022-09-13T03:30:36;7.10;;;3.38;;
27491;SDS011;14927;51.210;6.838;2022-09-13T03:36:41;5.60;;;3.30;;
27491;SDS011;14927;51.210;6.838;2022-09-13T03:45:44;4.15;;;3.20;;
27491;SDS011;14927;51.210;6.838;2022-09-13T03:48:36;4.40;;;3.28;;
27491;SDS011;14927;51.210;6.838;2022-09-13T03:51:23;3.80;;;3.25;;
27491;SDS011;14927;51.210;6.838;2022-09-13T03:54:30;6.57;;;3.65;;
27491;SDS011;14927;51.210;6.838;2022-09-13T03:57:19;3.38;;;2.90;;
27491;SDS011;14927;51.210;6.838;2022-09-13T04:00:05;4.80;;;3.33;;
27491;SDS011;14927;51.210;6.838;2022-09-13T04:02:50;7.93;;;3.67;;
27491;SDS011;14927;51.210;6.838;2022-09-13T04:05:34;3.53;;;3.22;;
27491;SDS011;14927;51.210;6.838;2022-09-13T04:08:20;5.05;;;3.28;;
27491;SDS011;14927;51.210;6.838;2022-09-13T04:11:05;6.88;;;3.30;;
27491;SDS011;14927;51.210;6.838;2022-09-13T04:13:49;4.53;;;3.10;;
27491;SDS011;14927;51.210;6.838;2022-09-13T04:16:35;6.45;;;3.65;;
27491;SDS011;14927;51.210;6.838;2022-09-13T04:19:20;5.00;;;3.20;;
27491;SDS011;14927;51.210;6.838;2022-09-13T04:22:05;4.00;;;2.80;;
27491;SDS011;14927;51.210;6.838;2022-09-13T04:24:50;3.25;;;2.95;;
27491;SDS011;14927;51.210;6.838;2022-09-13T04:27:35;4.97;;;3.10;;
27491;SDS011;14927;51.210;6.838;2022-09-13T04:30:21;4.75;;;3.13;;
27491;SDS011;14927;51.210;6.838;2022-09-13T04:33:06;3.30;;;3.00;;
27491;SDS011;14927;51.210;6.838;2022-09-13T04:35:57;3.65;;;3.30;;
27491;SDS011;14927;51.210;6.838;2022-09-13T04:38:42;5.60;;;3.60;;
27491;SDS011;14927;51.210;6.838;2022-09-13T04:41:29;4.75;;;3.72;;
27491;SDS011;14927;51.210;6.838;2022-09-13T04:44:17;4.20;;;3.30;;
27491;SDS011;14927;51.210;6.838;2022-09-13T04:47:08;5.78;;;3.55;;
27491;SDS011;14927;51.210;6.838;2022-09-13T04:49:53;5.90;;;4.07;;
27491;SDS011;14927;51.210;6.838;2022-09-13T04:52:38;4.40;;;4.00;;
27491;SDS011;14927;51.210;6.838;2022-09-13T04:55:22;3.92;;;3.30;;
27491;SDS011;14927;51.210;6.838;2022-09-13T04:58:08;6.60;;;3.75;;
27491;SDS011;14927;51.210;6.838;2022-09-13T05:00:53;5.97;;;3.63;;
27491;SDS011;14927;51.210;6.838;2022-09-13T05:03:44;5.05;;;3.70;;
27491;SDS011;14927;51.210;6.838;2022-09-13T05:06:35;5.55;;;3.75;;
27491;SDS011;14927;51.210;6.838;2022-09-13T05:09:23;6.25;;;4.82;;
27491;SDS011;14927;51.210;6.838;2022-09-13T05:12:08;4.45;;;3.72;;
27491;SDS011;14927;51.210;6.838;2022-09-13T05:14:53;8.18;;;4.43;;
27491;SDS011;14927;51.210;6.838;2022-09-13T05:17:40;8.82;;;3.63;;
27491;SDS011;14927;51.210;6.838;2022-09-13T05:20:24;5.72;;;4.03;;
27491;SDS011;14927;51.210;6.838;2022-09-13T05:23:09;5.18;;;3.75;;
27491;SDS011;14927;51.210;6.838;2022-09-13T05:26:03;4.95;;;4.15;;
27491;SDS011;14927;51.210;6.838;2022-09-13T05:28:49;4.95;;;3.70;;
27491;SDS011;14927;51.210;6.838;2022-09-13T05:31:35;3.97;;;3.53;;
27491;SDS011;14927;51.210;6.838;2022-09-13T05:34:21;7.13;;;4.10;;
27491;SDS011;14927;51.210;6.838;2022-09-13T05:37:06;6.63;;;3.92;;
27491;SDS011;14927;51.210;6.838;2022-09-13T05:39:51;5.18;;;4.68;;
27491;SDS011;14927;51.210;6.838;2022-09-13T05:42:36;5.13;;;4.53;;
27491;SDS011;14927;51.210;6.838;2022-09-13T05:45:29;4.70;;;3.80;;
27491;SDS011;14927;51.210;6.838;2022-09-13T05:48:18;5.32;;;4.47;;
27491;SDS011;14927;51.210;6.838;2022-09-13T05:54:05;4.68;;;4.13;;
27491;SDS011;14927;51.210;6.838;2022-09-13T05:56:50;8.05;;;4.22;;
27491;SDS011;14927;51.210;6.838;2022-09-13T05:59:37;4.53;;;3.95;;
27491;SDS011;14927;51.210;6.838;2022-09-13T06:02:22;7.60;;;4.53;;
27491;SDS011;14927;51.210;6.838;2022-09-13T06:05:07;15.25;;;5.35;;
27491;SDS011;14927;51.210;6.838;2022-09-13T06:07:53;32.40;;;5.28;;
27491;SDS011;14927;51.210;6.838;2022-09-13T06:10:38;15.75;;;4.30;;
27491;SDS011;14927;51.210;6.838;2022-09-13T06:13:23;9.73;;;3.92;;
27491;SDS011;14927;51.210;6.838;2022-09-13T06:16:09;6.18;;;4.22;;
27491;SDS011;14927;51.210;6.838;2022-09-13T06:18:56;8.27;;;4.38;;
27491;SDS011;14927;51.210;6.838;2022-09-13T06:21:41;10.65;;;4.00;;
27491;SDS011;14927;51.210;6.838;2022-09-13T06:24:26;5.80;;;4.00;;
27491;SDS011;14927;51.210;6.838;2022-09-13T06:27:11;6.10;;;4.15;;
27491;SDS011;14927;51.210;6.838;2022-09-13T06:29:59;9.13;;;4.72;;
27491;SDS011;14927;51.210;6.838;2022-09-13T06:32:51;5.10;;;4.13;;
27491;SDS011;14927;51.210;6.838;2022-09-13T06:35:39;5.72;;;3.63;;
27491;SDS011;14927;51.210;6.838;2022-09-13T06:38:25;5.07;;;3.92;;
27491;SDS011;14927;51.210;6.838;2022-09-13T06:41:14;13.52;;;4.72;;
27491;SDS011;14927;51.210;6.838;2022-09-13T06:44:02;6.05;;;4.28;;
27491;SDS011;14927;51.210;6.838;2022-09-13T06:46:47;12.80;;;4.57;;
27491;SDS011;14927;51.210;6.838;2022-09-13T06:49:32;13.80;;;4.03;;
27491;SDS011;14927;51.210;6.838;2022-09-13T06:52:17;9.68;;;4.30;;
27491;SDS011;14927;51.210;6.838;2022-09-13T06:55:01;6.40;;;4.10;;
27491;SDS011;14927;51.210;6.838;2022-09-13T06:57:47;7.80;;;4.00;;
27491;SDS011;14927;51.210;6.838;2022-09-13T07:00:31;4.30;;;3.90;;
27491;SDS011;14927;51.210;6.838;2022-09-13T07:03:16;6.68;;;4.00;;
27491;SDS011;14927;51.210;6.838;2022-09-13T07:06:05;7.32;;;4.20;;
27491;SDS011;14927;51.210;6.838;2022-09-13T07:09:03;9.65;;;4.25;;
27491;SDS011;14927;51.210;6.838;2022-09-13T07:12:32;9.10;;;4.30;;
27491;SDS011;14927;51.210;6.838;2022-09-13T07:15:17;7.78;;;3.58;;
27491;SDS011;14927;51.210;6.838;2022-09-13T07:18:02;11.32;;;4.10;;
27491;SDS011;14927;51.210;6.838;2022-09-13T07:20:47;8.10;;;3.95;;
27491;SDS011;14927;51.210;6.838;2022-09-13T07:23:32;7.82;;;3.83;;
27491;SDS011;14927;51.210;6.838;2022-09-13T07:26:19;10.80;;;3.97;;
27491;SDS011;14927;51.210;6.838;2022-09-13T07:29:04;5.80;;;3.90;;
27491;SDS011;14927;51.210;6.838;2022-09-13T07:31:52;6.55;;;3.92;;
27491;SDS011;14927;51.210;6.838;2022-09-13T07:34:38;9.50;;;4.15;;
27491;SDS011;14927;51.210;6.838;2022-09-13T07:37:22;7.95;;;3.80;;
27491;SDS011;14927;51.210;6.838;2022-09-13T07:40:07;9.82;;;4.03;;
27491;SDS011;14927;51.210;6.838;2022-09-13T07:42:52;6.60;;;3.95;;
27491;SDS011;14927;51.210;6.838;2022-09-13T07:45:36;13.77;;;4.32;;
27491;SDS011;14927;51.210;6.838;2022-09-13T07:48:21;6.15;;;3.75;;
27491;SDS011;14927;51.210;6.838;2022-09-13T07:51:13;13.13;;;4.72;;
27491;SDS011;14927;51.210;6.838;2022-09-13T07:54:15;4.45;;;3.38;;
27491;SDS011;14927;51.210;6.838;2022-09-13T07:57:00;8.68;;;3.85;;
27491;SDS011;14927;51.210;6.838;2022-09-13T07:59:45;8.63;;;3.50;;
27491;SDS011;14927;51.210;6.838;2022-09-13T08:02:30;6.35;;;3.95;;
27491;SDS011;14927;51.210;6.838;2022-09-13T08:05:14;18.45;;;4.47;;
27491;SDS011;14927;51.210;6.838;2022-09-13T08:07:59;7.85;;;3.95;;
27491;SDS011;14927;51.210;6.838;2022-09-13T08:10:43;8.55;;;3.28;;
27491;SDS011;14927;51.210;6.838;2022-09-13T08:13:28;7.68;;;3.65;;
27491;SDS011;14927;51.210;6.838;2022-09-13T08:16:16;11.68;;;3.90;;
27491;SDS011;14927;51.210;6.838;2022-09-13T08:19:03;11.07;;;3.95;;
27491;SDS011;14927;51.210;6.838;2022-09-13T08:21:48;6.35;;;4.05;;
27491;SDS011;14927;51.210;6.838;2022-09-13T08:24:33;12.93;;;4.00;;
27491;SDS011;14927;51.210;6.838;2022-09-13T08:27:18;11.60;;;3.42;;
27491;SDS011;14927;51.210;6.838;2022-09-13T08:30:03;9.18;;;4.00;;
27491;SDS011;14927;51.210;6.838;2022-09-13T08:32:51;6.47;;;3.72;;
27491;SDS011;14927;51.210;6.838;2022-09-13T08:35:35;5.82;;;3.53;;
27491;SDS011;14927;51.210;6.838;2022-09-13T08:38:21;11.45;;;3.42;;
27491;SDS011;14927;51.210;6.838;2022-09-13T08:44:32;7.90;;;3.92;;
27491;SDS011;14927;51.210;6.838;2022-09-13T08:50:26;11.65;;;4.15;;
27491;SDS011;14927;51.210;6.838;2022-09-13T08:53:27;9.63;;;3.67;;
27491;SDS011;14927;51.210;6.838;2022-09-13T08:56:19;12.85;;;4.10;;
27491;SDS011;14927;51.210;6.838;2022-09-13T09:05:51;9.35;;;3.60;;
27491;SDS011;14927;51.210;6.838;2022-09-13T09:08:42;8.55;;;3.58;;
27491;SDS011;14927;51.210;6.838;2022-09-13T09:21:15;12.35;;;3.90;;
27491;SDS011;14927;51.210;6.838;2022-09-13T09:24:05;7.93;;;3.67;;
27491;SDS011;14927;51.210;6.838;2022-09-13T09:26:52;6.47;;;3.20;;
27491;SDS011;14927;51.210;6.838;2022-09-13T09:29:40;12.13;;;3.95;;
27491;SDS011;14927;51.210;6.838;2022-09-13T09:32:37;21.48;;;6.75;;
27491;SDS011;14927;51.210;6.838;2022-09-13T09:35:41;10.70;;;3.97;;
27491;SDS011;14927;51.210;6.838;2022-09-13T09:38:44;6.18;;;3.13;;
27491;SDS011;14927;51.210;6.838;2022-09-13T09:41:32;6.30;;;3.17;;
27491;SDS011;14927;51.210;6.838;2022-09-13T09:44:20;8.43;;;3.33;;
27491;SDS011;14927;51.210;6.838;2022-09-13T09:47:13;4.18;;;2.80;;
27491;SDS011;14927;51.210;6.838;2022-09-13T09:53:11;12.68;;;3.30;;
27491;SDS011;14927;51.210;6.838;2022-09-13T09:56:00;6.20;;;3.00;;
27491;SDS011;14927;51.210;6.838;2022-09-13T09:58:49;6.68;;;3.55;;
27491;SDS011;14927;51.210;6.838;2022-09-13T10:01:38;9.27;;;3.50;;
27491;SDS011;14927;51.210;6.838;2022-09-13T10:04:25;7.28;;;3.20;;
27491;SDS011;14927;51.210;6.838;2022-09-13T10:07:48;7.88;;;3.38;;
27491;SDS011;14927;51.210;6.838;2022-09-13T10:13:18;7.43;;;3.72;;
27491;SDS011;14927;51.210;6.838;2022-09-13T10:16:05;4.90;;;3.75;;
27491;SDS011;14927;51.210;6.838;2022-09-13T10:19:24;8.73;;;4.18;;
27491;SDS011;14927;51.210;6.838;2022-09-13T10:22:10;7.00;;;4.05;;
27491;SDS011;14927;51.210;6.838;2022-09-13T10:25:12;7.40;;;2.78;;
27491;SDS011;14927;51.210;6.838;2022-09-13T10:28:14;7.75;;;3.70;;
27491;SDS011;14927;51.210;6.838;2022-09-13T10:31:02;7.93;;;4.30;;
27491;SDS011;14927;51.210;6.838;2022-09-13T10:34:00;7.07;;;3.75;;
27491;SDS011;14927;51.210;6.838;2022-09-13T10:36:59;6.55;;;2.72;;
27491;SDS011;14927;51.210;6.838;2022-09-13T10:43:13;4.97;;;2.90;;
27491;SDS011;14927;51.210;6.838;2022-09-13T10:46:03;6.85;;;3.50;;
27491;SDS011;14927;51.210;6.838;2022-09-13T10:48:51;7.97;;;3.92;;
27491;SDS011;14927;51.210;6.838;2022-09-13T10:51:38;7.43;;;2.90;;
27491;SDS011;14927;51.210;6.838;2022-09-13T10:54:24;8.55;;;3.00;;
27491;SDS011;14927;51.210;6.838;2022-09-13T11:00:27;6.80;;;2.85;;
27491;SDS011;14927;51.210;6.838;2022-09-13T11:06:53;6.53;;;2.95;;
27491;SDS011;14927;51.210;6.838;2022-09-13T11:10:15;4.82;;;2.90;;
27491;SDS011;14927;51.210;6.838;2022-09-13T11:16:46;3.53;;;2.60;;
27491;SDS011;14927;51.210;6.838;2022-09-13T11:26:26;5.28;;;2.25;;
27491;SDS011;14927;51.210;6.838;2022-09-13T11:29:52;5.28;;;2.72;;
27491;SDS011;14927;51.210;6.838;2022-09-13T11:36:17;6.72;;;3.45;;
27491;SDS011;14927;51.210;6.838;2022-09-13T11:39:37;7.68;;;2.70;;
27491;SDS011;14927;51.210;6.838;2022-09-13T11:42:47;11.02;;;3.40;;
27491;SDS011;14927;51.210;6.838;2022-09-13T11:55:42;8.93;;;3.88;;
27491;SDS011;14927;51.210;6.838;2022-09-13T11:58:35;7.15;;;3.72;;
27491;SDS011;14927;51.210;6.838;2022-09-13T12:01:33;6.28;;;2.88;;
27491;SDS011;14927;51.210;6.838;2022-09-13T12:04:26;13.38;;;3.17;;
27491;SDS011;14927;51.210;6.838;2022-09-13T12:10:53;6.13;;;2.55;;
27491;SDS011;14927;51.210;6.838;2022-09-13T12:16:31;9.73;;;3.38;;
27491;SDS011;14927;51.210;6.838;2022-09-13T12:22:25;4.85;;;3.10;;
27491;SDS011;14927;51.210;6.838;2022-09-13T12:25:20;13.00;;;2.92;;
27491;SDS011;14927;51.210;6.838;2022-09-13T12:31:21;6.55;;;3.10;;
27491;SDS011;14927;51.210;6.838;2022-09-13T12:34:23;3.65;;;2.15;;
27491;SDS011;14927;51.210;6.838;2022-09-13T12:37:19;7.10;;;2.38;;
27491;SDS011;14927;51.210;6.838;2022-09-13T12:47:26;5.88;;;2.38;;
27491;SDS011;14927;51.210;6.838;2022-09-13T12:57:33;1.95;;;1.52;;
27491;SDS011;14927;51.210;6.838;2022-09-13T13:01:03;3.55;;;1.95;;
27491;SDS011;14927;51.210;6.838;2022-09-13T13:04:18;3.28;;;1.52;;
27491;SDS011;14927;51.210;6.838;2022-09-13T13:07:15;5.07;;;1.88;;
27491;SDS011;14927;51.210;6.838;2022-09-13T13:10:05;4.47;;;1.90;;
27491;SDS011;14927;51.210;6.838;2022-09-13T13:19:30;4.38;;;2.00;;
27491;SDS011;14927;51.210;6.838;2022-09-13T13:25:31;3.58;;;1.88;;
27491;SDS011;14927;51.210;6.838;2022-09-13T13:31:34;6.13;;;2.30;;
27491;SDS011;14927;51.210;6.838;2022-09-13T13:37:30;3.20;;;2.05;;
27491;SDS011;14927;51.210;6.838;2022-09-13T13:40:24;5.63;;;2.15;;
27491;SDS011;14927;51.210;6.838;2022-09-13T13:43:29;6.50;;;2.10;;
27491;SDS011;14927;51.210;6.838;2022-09-13T13:46:24;4.80;;;2.42;;
27491;SDS011;14927;51.210;6.838;2022-09-13T13:59:06;2.97;;;1.95;;
27491;SDS011;14927;51.210;6.838;2022-09-13T14:02:01;5.00;;;1.77;;
27491;SDS011;14927;51.210;6.838;2022-09-13T14:04:57;4.75;;;2.28;;
27491;SDS011;14927;51.210;6.838;2022-09-13T14:15:00;3.10;;;1.45;;
27491;SDS011;14927;51.210;6.838;2022-09-13T14:21:21;1.88;;;1.67;;
27491;SDS011;14927;51.210;6.838;2022-09-13T14:27:21;4.13;;;2.10;;
27491;SDS011;14927;51.210;6.838;2022-09-13T14:30:23;3.05;;;1.67;;
27491;SDS011;14927;51.210;6.838;2022-09-13T14:33:23;4.72;;;1.60;;
27491;SDS011;14927;51.210;6.838;2022-09-13T14:36:20;3.08;;;1.75;;
27491;SDS011;14927;51.210;6.838;2022-09-13T14:39:07;4.45;;;1.80;;
27491;SDS011;14927;51.210;6.838;2022-09-13T14:45:00;3.95;;;2.17;;
27491;SDS011;14927;51.210;6.838;2022-09-13T14:50:59;5.72;;;1.70;;
27491;SDS011;14927;51.210;6.838;2022-09-13T14:54:14;5.63;;;1.50;;
27491;SDS011;14927;51.210;6.838;2022-09-13T14:57:20;5.32;;;1.80;;
27491;SDS011;14927;51.210;6.838;2022-09-13T15:00:21;3.53;;;1.50;;
27491;SDS011;14927;51.210;6.838;2022-09-13T15:03:11;3.63;;;1.52;;
27491;SDS011;14927;51.210;6.838;2022-09-13T15:06:00;4.03;;;1.92;;
27491;SDS011;14927;51.210;6.838;2022-09-13T15:08:48;5.60;;;1.75;;
27491;SDS011;14927;51.210;6.838;2022-09-13T15:11:34;4.53;;;1.42;;
27491;SDS011;14927;51.210;6.838;2022-09-13T15:14:26;2.25;;;1.38;;
27491;SDS011;14927;51.210;6.838;2022-09-13T15:17:20;2.10;;;1.70;;
27491;SDS011;14927;51.210;6.838;2022-09-13T15:20:10;4.63;;;1.70;;
27491;SDS011;14927;51.210;6.838;2022-09-13T15:22:55;3.20;;;1.40;;
27491;SDS011;14927;51.210;6.838;2022-09-13T15:25:40;4.20;;;1.60;;
27491;SDS011;14927;51.210;6.838;2022-09-13T15:28:46;4.25;;;1.58;;
27491;SDS011;14927;51.210;6.838;2022-09-13T15:31:38;4.03;;;1.42;;
27491;SDS011;14927;51.210;6.838;2022-09-13T15:34:23;2.08;;;1.35;;
27491;SDS011;14927;51.210;6.838;2022-09-13T15:37:12;5.50;;;1.20;;
27491;SDS011;14927;51.210;6.838;2022-09-13T15:40:06;4.10;;;1.60;;
27491;SDS011;14927;51.210;6.838;2022-09-13T15:46:24;7.03;;;1.75;;
27491;SDS011;14927;51.210;6.838;2022-09-13T15:49:08;3.38;;;1.52;;
27491;SDS011;14927;51.210;6.838;2022-09-13T15:52:01;2.33;;;1.38;;
27491;SDS011;14927;51.210;6.838;2022-09-13T15:54:49;7.07;;;1.75;;
27491;SDS011;14927;51.210;6.838;2022-09-13T15:57:34;2.50;;;1.30;;
27491;SDS011;14927;51.210;6.838;2022-09-13T16:00:24;1.85;;;1.27;;
27491;SDS011;14927;51.210;6.838;2022-09-13T16:03:10;6.00;;;1.77;;
27491;SDS011;14927;51.210;6.838;2022-09-13T16:05:55;4.07;;;1.27;;
27491;SDS011;14927;51.210;6.838;2022-09-13T16:08:40;2.50;;;1.70;;
27491;SDS011;14927;51.210;6.838;2022-09-13T16:11:25;2.70;;;1.70;;
27491;SDS011;14927;51.210;6.838;2022-09-13T16:14:10;5.40;;;1.58;;
27491;SDS011;14927;51.210;6.838;2022-09-13T16:16:56;3.88;;;1.85;;
27491;SDS011;14927;51.210;6.838;2022-09-13T16:19:44;3.53;;;1.58;;
27491;SDS011;14927;51.210;6.838;2022-09-13T16:22:29;4.90;;;1.70;;
27491;SDS011;14927;51.210;6.838;2022-09-13T16:25:14;2.95;;;1.58;;
27491;SDS011;14927;51.210;6.838;2022-09-13T16:27:58;8.52;;;1.90;;
27491;SDS011;14927;51.210;6.838;2022-09-13T16:30:43;4.32;;;2.30;;
27491;SDS011;14927;51.210;6.838;2022-09-13T16:33:27;2.83;;;1.55;;
27491;SDS011;14927;51.210;6.838;2022-09-13T16:36:14;3.13;;;1.75;;
27491;SDS011;14927;51.210;6.838;2022-09-13T16:38:58;4.57;;;1.90;;
27491;SDS011;14927;51.210;6.838;2022-09-13T16:41:44;3.33;;;1.98;;
27491;SDS011;14927;51.210;6.838;2022-09-13T16:44:28;3.63;;;2.15;;
27491;SDS011;14927;51.210;6.838;2022-09-13T16:47:13;5.65;;;2.45;;
27491;SDS011;14927;51.210;6.838;2022-09-13T16:49:58;6.07;;;3.08;;
27491;SDS011;14927;51.210;6.838;2022-09-13T16:52:43;3.80;;;2.63;;
27491;SDS011;14927;51.210;6.838;2022-09-13T16:55:27;7.55;;;3.60;;
27491;SDS011;14927;51.210;6.838;2022-09-13T16:58:12;7.70;;;3.47;;
27491;SDS011;14927;51.210;6.838;2022-09-13T17:00:57;8.13;;;4.50;;
27491;SDS011;14927;51.210;6.838;2022-09-13T17:03:42;9.35;;;4.72;;
27491;SDS011;14927;51.210;6.838;2022-09-13T17:06:26;6.00;;;4.00;;
27491;SDS011;14927;51.210;6.838;2022-09-13T17:09:11;8.50;;;4.03;;
27491;SDS011;14927;51.210;6.838;2022-09-13T17:11:56;7.95;;;5.10;;
27491;SDS011;14927;51.210;6.838;2022-09-13T17:14:41;9.68;;;5.72;;
27491;SDS011;14927;51.210;6.838;2022-09-13T17:17:31;8.80;;;5.28;;
27491;SDS011;14927;51.210;6.838;2022-09-13T17:20:19;8.20;;;5.53;;
27491;SDS011;14927;51.210;6.838;2022-09-13T17:23:03;8.20;;;6.00;;
27491;SDS011;14927;51.210;6.838;2022-09-13T17:25:49;10.07;;;5.47;;
27491;SDS011;14927;51.210;6.838;2022-09-13T17:28:34;8.32;;;5.32;;
27491;SDS011;14927;51.210;6.838;2022-09-13T17:31:19;8.25;;;5.60;;
27491;SDS011;14927;51.210;6.838;2022-09-13T17:34:04;12.48;;;6.30;;
27491;SDS011;14927;51.210;6.838;2022-09-13T17:36:48;8.23;;;6.05;;
27491;SDS011;14927;51.210;6.838;2022-09-13T17:39:33;10.80;;;6.00;;
27491;SDS011;14927;51.210;6.838;2022-09-13T17:42:17;7.97;;;6.15;;
27491;SDS011;14927;51.210;6.838;2022-09-13T17:45:02;10.10;;;6.18;;
27491;SDS011;14927;51.210;6.838;2022-09-13T17:47:47;16.98;;;7.00;;
27491;SDS011;14927;51.210;6.838;2022-09-13T17:50:35;8.55;;;6.03;;
27491;SDS011;14927;51.210;6.838;2022-09-13T17:53:19;9.75;;;6.07;;
27491;SDS011;14927;51.210;6.838;2022-09-13T17:56:04;12.10;;;7.00;;
27491;SDS011;14927;51.210;6.838;2022-09-13T17:58:50;10.52;;;6.53;;
27491;SDS011;14927;51.210;6.838;2022-09-13T18:01:35;15.32;;;6.47;;
27491;SDS011;14927;51.210;6.838;2022-09-13T18:04:22;8.70;;;6.97;;
27491;SDS011;14927;51.210;6.838;2022-09-13T18:07:07;10.45;;;6.80;;
27491;SDS011;14927;51.210;6.838;2022-09-13T18:09:51;9.82;;;7.43;;
27491;SDS011;14927;51.210;6.838;2022-09-13T18:12:36;11.68;;;7.45;;
27491;SDS011;14927;51.210;6.838;2022-09-13T18:15:21;10.05;;;6.88;;
27491;SDS011;14927;51.210;6.838;2022-09-13T18:18:06;10.65;;;7.47;;
27491;SDS011;14927;51.210;6.838;2022-09-13T18:20:51;9.63;;;7.30;;
27491;SDS011;14927;51.210;6.838;2022-09-13T18:23:35;9.98;;;7.35;;
27491;SDS011;14927;51.210;6.838;2022-09-13T18:26:21;9.25;;;7.40;;
27491;SDS011;14927;51.210;6.838;2022-09-13T18:29:11;12.43;;;7.03;;
27491;SDS011;14927;51.210;6.838;2022-09-13T18:31:57;8.65;;;6.55;;
27491;SDS011;14927;51.210;6.838;2022-09-13T18:34:41;10.40;;;7.47;;
27491;SDS011;14927;51.210;6.838;2022-09-13T18:37:27;8.02;;;6.28;;
27491;SDS011;14927;51.210;6.838;2022-09-13T18:40:16;9.50;;;6.43;;
27491;SDS011;14927;51.210;6.838;2022-09-13T18:43:01;13.77;;;6.85;;
27491;SDS011;14927;51.210;6.838;2022-09-13T18:45:56;7.57;;;6.07;;
27491;SDS011;14927;51.210;6.838;2022-09-13T18:48:44;10.93;;;6.80;;
27491;SDS011;14927;51.210;6.838;2022-09-13T18:51:38;7.90;;;5.57;;
27491;SDS011;14927;51.210;6.838;2022-09-13T18:54:28;8.70;;;5.60;;
27491;SDS011;14927;51.210;6.838;2022-09-13T18:57:13;14.25;;;6.20;;
27491;SDS011;14927;51.210;6.838;2022-09-13T18:59:57;7.15;;;5.20;;
27491;SDS011;14927;51.210;6.838;2022-09-13T19:02:42;7.63;;;5.00;;
27491;SDS011;14927;51.210;6.838;2022-09-13T19:05:27;6.25;;;5.50;;
27491;SDS011;14927;51.210;6.838;2022-09-13T19:08:12;9.38;;;5.72;;
27491;SDS011;14927;51.210;6.838;2022-09-13T19:10:56;8.40;;;6.05;;
27491;SDS011;14927;51.210;6.838;2022-09-13T19:13:41;11.60;;;6.78;;
27491;SDS011;14927;51.210;6.838;2022-09-13T19:16:26;8.55;;;6.43;;
27491;SDS011;14927;51.210;6.838;2022-09-13T19:19:11;8.85;;;6.68;;
27491;SDS011;14927;51.210;6.838;2022-09-13T19:21:56;10.98;;;6.60;;
27491;SDS011;14927;51.210;6.838;2022-09-13T19:24:41;13.55;;;6.53;;
27491;SDS011;14927;51.210;6.838;2022-09-13T19:27:31;10.27;;;6.65;;
27491;SDS011;14927;51.210;6.838;2022-09-13T19:30:18;9.38;;;7.05;;
27491;SDS011;14927;51.210;6.838;2022-09-13T19:37:17;11.80;;;6.70;;
27491;SDS011;14927;51.210;6.838;2022-09-13T19:41:44;11.02;;;6.80;;
27491;SDS011;14927;51.210;6.838;2022-09-13T19:44:49;9.20;;;7.00;;
27491;SDS011;14927;51.210;6.838;2022-09-13T19:47:38;8.95;;;7.28;;
27491;SDS011;14927;51.210;6.838;2022-09-13T19:50:36;10.02;;;7.47;;
27491;SDS011;14927;51.210;6.838;2022-09-13T19:53:49;10.77;;;7.45;;
27491;SDS011;14927;51.210;6.838;2022-09-13T19:56:38;13.23;;;7.97;;
27491;SDS011;14927;51.210;6.838;2022-09-13T19:59:26;10.52;;;7.75;;
27491;SDS011;14927;51.210;6.838;2022-09-13T20:02:24;10.15;;;7.55;;
27491;SDS011;14927;51.210;6.838;2022-09-13T20:07:55;10.95;;;7.72;;
27491;SDS011;14927;51.210;6.838;2022-09-13T20:10:40;9.30;;;7.28;;
27491;SDS011;14927;51.210;6.838;2022-09-13T20:13:24;10.48;;;7.95;;
27491;SDS011;14927;51.210;6.838;2022-09-13T20:16:12;12.07;;;8.20;;
27491;SDS011;14927;51.210;6.838;2022-09-13T20:19:02;10.45;;;8.20;;
27491;SDS011;14927;51.210;6.838;2022-09-13T20:21:53;10.02;;;7.97;;
27491;SDS011;14927;51.210;6.838;2022-09-13T20:24:38;12.00;;;8.68;;
27491;SDS011;14927;51.210;6.838;2022-09-13T20:27:22;11.02;;;8.77;;
27491;SDS011;14927;51.210;6.838;2022-09-13T20:30:07;15.57;;;8.80;;
27491;SDS011;14927;51.210;6.838;2022-09-13T20:32:54;15.90;;;8.98;;
27491;SDS011;14927;51.210;6.838;2022-09-13T20:35:38;12.30;;;9.13;;
27491;SDS011;14927;51.210;6.838;2022-09-13T20:38:24;15.13;;;8.18;;
27491;SDS011;14927;51.210;6.838;2022-09-13T20:41:12;11.60;;;8.20;;